Startpagina
METAR-TAF:

METAR-TAF

Vliegvelden :

Luchthaven Warschau Frédéric Chopin

Warschau, Polen

breedte: 52-10N, lengte: 020-58E, hoogte: 106 m

Actueel weer

Dit bericht is 18 minuten geleden gemaakt, om 06:00 UTC
Wind 6 kt uit het noorden, variërend tussen het noordnoordwesten en het noordoosten
Temperatuur 0°C
Vochtigheid 80%
Druk 1024 hPa
Zicht 10 km of meer
Weinig wolken op 1800 ft
Gebroken wolken op 2600 ft

METAR: EPWA 140600Z 01006KT 340V040 9999 FEW018 BKN026 00/M03 Q1024 NOSIG

Tijdstip: 07:18 (06:18 UTC)

Verwachting

Dit bericht is 48 minuten geleden gemaakt, om 05:30 UTC
Verwachting geldig van 14 om 06 UTC tot 15 om 06 UTC
Wind 6 kt uit het noordoosten
Zicht 10 km of meer
Gebroken wolken op 1200 ft
Geheel bewolkt op 2000 ft
Kans 30% :
Tijdelijke
van 14 om 10 UTC tot 15 om 06 UTC
Zicht: 4500 m
Gebroken wolken op 700 ft
lichte sneeuw, nevel

TAF: EPWA 140530Z 1406/1506 04006KT 9999 BKN012 OVC020 PROB30 TEMPO 1410/1506 4500 -SN BR BKN007

Waarnemingen en weersverwachtingen van meer dan 4000 vliegvelden (METAR en TAF).

De beschikbare stations zijn de gele en rode punten op de kaart.

Ga met uw muis naar het station om de naam te zien.

Klik dan om waarnemingen en weersverwachtingen te zien.

kaart wijzigen: klik op de groene knoppen met een zwart kruis om in te zoomen, op de groene knop met een streepje om uit te zoomen of op de groene pijlen voor aangrenzende kaarten.


METAR-TAF: